createdAt,value
2018-06-12T00:00:43.096Z,14.37
2018-06-12T00:03:12.501Z,11.40
2018-06-12T00:05:41.917Z,11.60
2018-06-12T00:08:11.369Z,13.07
2018-06-12T00:10:40.813Z,15.50
2018-06-12T00:13:10.145Z,11.67
2018-06-12T00:15:39.561Z,12.77
2018-06-12T00:18:08.972Z,14.93
2018-06-12T00:20:38.351Z,15.40
2018-06-12T00:23:07.745Z,12.67
2018-06-12T00:25:37.133Z,13.07
2018-06-12T00:28:06.548Z,13.53
2018-06-12T00:30:35.981Z,23.53
2018-06-12T00:33:05.364Z,18.00
2018-06-12T00:35:34.707Z,18.23
2018-06-12T00:38:04.094Z,15.80
2018-06-12T00:40:33.485Z,16.50
2018-06-12T00:43:02.857Z,13.57
2018-06-12T00:45:32.268Z,15.10
2018-06-12T00:48:01.640Z,16.27
2018-06-12T00:50:31.056Z,14.57
2018-06-12T00:53:00.451Z,17.53
2018-06-12T00:55:29.853Z,14.73
2018-06-12T00:57:59.196Z,16.53
2018-06-12T01:00:28.615Z,12.97
2018-06-12T01:02:58.041Z,14.17
2018-06-12T01:05:27.427Z,14.17
2018-06-12T01:07:56.784Z,12.93
2018-06-12T01:10:26.223Z,15.90
2018-06-12T01:12:55.648Z,15.50
2018-06-12T01:15:25.053Z,14.83
2018-06-12T01:17:54.447Z,11.67
2018-06-12T01:20:23.910Z,17.13
2018-06-12T01:22:53.334Z,15.13
2018-06-12T01:25:22.789Z,16.90
2018-06-12T01:27:52.229Z,15.57
2018-06-12T01:30:22.520Z,13.07
2018-06-12T01:32:51.888Z,13.63
2018-06-12T01:35:21.837Z,16.50
2018-06-12T01:37:51.184Z,17.27
2018-06-12T01:40:20.573Z,22.17
2018-06-12T01:42:50.044Z,14.07
2018-06-12T01:45:19.392Z,17.77
2018-06-12T01:47:48.764Z,15.57
2018-06-12T01:50:18.158Z,13.40
2018-06-12T01:52:47.521Z,16.80
2018-06-12T01:55:16.891Z,18.90
2018-06-12T01:57:46.916Z,19.00
2018-06-12T02:00:16.271Z,19.07
2018-06-12T02:02:45.645Z,17.27
2018-06-12T02:05:15.060Z,18.23
2018-06-12T02:07:44.446Z,21.87
2018-06-12T02:10:13.850Z,17.10
2018-06-12T02:12:43.236Z,19.67
2018-06-12T02:15:12.640Z,24.57
2018-06-12T02:17:41.983Z,22.27
2018-06-12T02:20:11.433Z,19.90
2018-06-12T02:22:40.812Z,16.90
2018-06-12T02:25:10.233Z,21.97
2018-06-12T02:27:39.585Z,24.60
2018-06-12T02:30:08.955Z,22.00
2018-06-12T02:32:38.301Z,29.13
2018-06-12T02:35:07.648Z,25.37
2018-06-12T02:37:37.010Z,24.43
2018-06-12T02:40:06.402Z,26.53
2018-06-12T02:42:35.836Z,31.13
2018-06-12T02:45:05.205Z,30.40
2018-06-12T02:47:34.771Z,37.37
2018-06-12T02:50:04.162Z,36.60
2018-06-12T02:52:33.517Z,33.87
2018-06-12T02:55:03.131Z,33.20
2018-06-12T02:57:32.549Z,38.87
2018-06-12T03:00:01.921Z,30.03
2018-06-12T03:02:31.292Z,40.63
2018-06-12T03:05:00.660Z,34.53
2018-06-12T03:07:30.100Z,39.40
2018-06-12T03:09:59.538Z,36.37
2018-06-12T03:12:28.918Z,36.77
2018-06-12T03:14:58.866Z,35.43
2018-06-12T03:17:28.261Z,41.23
2018-06-12T03:19:59.256Z,41.17
2018-06-12T03:22:28.694Z,37.60
2018-06-12T03:24:58.098Z,41.57
2018-06-12T03:27:27.505Z,38.60
2018-06-12T03:29:57.490Z,41.20
2018-06-12T03:32:26.900Z,40.97
2018-06-12T03:34:56.283Z,41.43
2018-06-12T03:37:25.745Z,39.07
2018-06-12T03:39:55.148Z,38.23
2018-06-12T03:42:24.543Z,35.97
2018-06-12T03:44:53.954Z,42.50
2018-06-12T03:47:23.725Z,36.57
2018-06-12T03:49:53.113Z,41.47
2018-06-12T03:52:24.879Z,35.23
2018-06-12T03:54:54.264Z,36.53
2018-06-12T03:57:23.739Z,36.70
2018-06-12T03:59:53.115Z,38.93
2018-06-12T04:02:22.618Z,43.77
2018-06-12T04:04:51.944Z,36.40
2018-06-12T04:07:21.405Z,40.47
2018-06-12T04:09:50.807Z,35.50
2018-06-12T04:12:20.242Z,42.20
2018-06-12T04:14:49.647Z,38.37
2018-06-12T04:17:19.053Z,38.37
2018-06-12T04:19:48.457Z,39.33
2018-06-12T04:22:17.882Z,35.70
2018-06-12T04:24:47.318Z,38.00
2018-06-12T04:27:16.726Z,38.23
2018-06-12T04:29:46.140Z,36.07
2018-06-12T04:32:15.524Z,37.20
2018-06-12T04:34:45.038Z,38.90
2018-06-12T04:37:14.492Z,43.93
2018-06-12T04:39:43.894Z,35.87
2018-06-12T04:42:13.871Z,37.20
2018-06-12T04:44:43.261Z,42.00
2018-06-12T04:47:12.693Z,35.80
2018-06-12T04:49:42.085Z,41.10
2018-06-12T04:52:11.495Z,42.87
2018-06-12T04:54:41.462Z,43.00
2018-06-12T04:57:10.832Z,40.43
2018-06-12T04:59:40.256Z,36.60
2018-06-12T05:02:09.317Z,35.40
2018-06-12T05:04:38.691Z,43.97
2018-06-12T05:07:08.120Z,34.10
2018-06-12T05:09:37.503Z,36.93
2018-06-12T05:12:07.148Z,41.63
2018-06-12T05:14:36.525Z,37.00
2018-06-12T05:17:05.932Z,40.77
2018-06-12T05:19:35.429Z,41.83
2018-06-12T05:22:04.828Z,37.57
2018-06-12T05:24:34.285Z,40.93
2018-06-12T05:27:03.659Z,40.83
2018-06-12T05:29:33.127Z,39.90
2018-06-12T05:32:02.772Z,32.77
2018-06-12T05:34:35.149Z,37.57
2018-06-12T05:37:04.544Z,35.77
2018-06-12T05:39:33.956Z,34.10
2018-06-12T05:42:03.351Z,37.40
2018-06-12T05:44:32.795Z,37.80
2018-06-12T05:47:02.244Z,36.07
2018-06-12T05:49:32.570Z,37.53
2018-06-12T05:52:01.942Z,32.10
2018-06-12T05:54:31.337Z,32.37
2018-06-12T05:57:00.730Z,34.93
2018-06-12T05:59:30.141Z,36.23
2018-06-12T06:01:59.533Z,35.13
2018-06-12T06:04:28.947Z,39.00
2018-06-12T06:06:58.417Z,33.97
2018-06-12T06:09:27.815Z,34.20
2018-06-12T06:11:57.259Z,32.20
2018-06-12T06:14:26.761Z,33.20
2018-06-12T06:16:56.154Z,37.47
2018-06-12T06:19:25.596Z,35.17
2018-06-12T06:21:54.996Z,31.00
2018-06-12T06:24:24.428Z,33.57
2018-06-12T06:26:53.790Z,28.17
2018-06-12T06:29:23.164Z,27.37
2018-06-12T06:31:52.323Z,27.20
2018-06-12T06:34:21.652Z,27.50
2018-06-12T06:36:51.051Z,25.50
2018-06-12T06:39:20.457Z,31.93
2018-06-12T06:41:49.880Z,32.60
2018-06-12T06:44:19.423Z,28.77
2018-06-12T06:46:48.817Z,30.97
2018-06-12T06:49:18.220Z,27.93
2018-06-12T06:51:48.314Z,26.10
2018-06-12T06:54:17.670Z,23.97
2018-06-12T06:56:47.077Z,30.03
2018-06-12T06:59:16.474Z,27.90
2018-06-12T07:01:45.914Z,31.40
2018-06-12T07:04:15.268Z,30.30
2018-06-12T07:06:44.648Z,26.13
2018-06-12T07:09:14.012Z,26.17
2018-06-12T07:11:43.416Z,23.87
2018-06-12T07:14:12.864Z,24.10
2018-06-12T07:16:42.274Z,22.17
2018-06-12T07:19:11.654Z,25.07
2018-06-12T07:21:41.068Z,22.10
2018-06-12T07:24:10.699Z,31.43
2018-06-12T07:26:40.106Z,24.90
2018-06-12T07:29:09.478Z,19.20
2018-06-12T07:31:38.974Z,18.73
2018-06-12T07:34:08.380Z,21.27
2018-06-12T07:36:37.962Z,19.87
2018-06-12T07:39:09.681Z,17.50
2018-06-12T07:41:39.234Z,20.20
2018-06-12T07:44:08.591Z,22.50
2018-06-12T07:46:38.192Z,20.10
2018-06-12T07:49:07.581Z,18.80
2018-06-12T07:51:37.122Z,23.40
2018-06-12T07:54:06.622Z,19.97
2018-06-12T07:56:36.684Z,23.37
2018-06-12T07:59:06.818Z,16.73
2018-06-12T08:01:36.249Z,22.93
2018-06-12T08:04:05.662Z,23.40
2018-06-12T08:06:35.132Z,21.03
2018-06-12T08:09:06.505Z,31.30
2018-06-12T08:11:36.045Z,24.87
2018-06-12T08:14:05.492Z,21.90
2018-06-12T08:16:34.885Z,25.60
2018-06-12T08:19:04.313Z,24.93
2018-06-12T08:21:33.715Z,20.23
2018-06-12T08:24:03.220Z,18.63
2018-06-12T08:26:32.652Z,29.20
2018-06-12T08:29:02.028Z,25.03
2018-06-12T08:31:31.409Z,26.67
2018-06-12T08:34:00.803Z,24.57
2018-06-12T08:36:30.226Z,23.57
2018-06-12T08:38:59.602Z,24.60
2018-06-12T08:41:29.136Z,32.33
2018-06-12T08:43:58.548Z,31.43
2018-06-12T08:46:28.028Z,23.97
2018-06-12T08:48:57.428Z,27.17
2018-06-12T08:51:26.888Z,20.87
2018-06-12T08:53:56.314Z,25.20
2018-06-12T08:56:25.800Z,19.80
2018-06-12T08:58:55.206Z,24.00
2018-06-12T09:01:24.666Z,25.93
2018-06-12T09:03:54.047Z,23.20
2018-06-12T09:06:23.453Z,20.73
2018-06-12T09:08:52.906Z,22.70
2018-06-12T09:11:22.333Z,29.60
2018-06-12T12:11:15.132Z,20.27
